Time;durP1;ratioP1;P1;durP2;ratioP2;P2;SDS_P1;SDS_P2;PMS_P1;PMS_P2;Temp;Humidity;BMP_temperature;BMP_pressure;BME280_temperature;BME280_humidity;BME280_pressure;Samples;Min_cycle;Max_cycle;Signal;HPM_P1;HPM_P2
2022/04/29 00:00:18;;;;;;;13.80;8.10;;;6.00;99.90;;;;;;5005183;28;20095;-76
2022/04/29 00:02:45;;;;;;;11.63;7.68;;;6.00;99.90;;;;;;5028691;28;20076;-76
2022/04/29 00:05:11;;;;;;;18.55;9.30;;;6.00;99.90;;;;;;5027368;28;20049;-76
2022/04/29 00:07:39;;;;;;;10.65;8.02;;;6.00;99.90;;;;;;5012836;28;20037;-76
2022/04/29 00:10:07;;;;;;;10.68;8.20;;;5.90;99.90;;;;;;5032199;28;20049;-77
2022/04/29 00:12:33;;;;;;;10.63;7.65;;;5.90;99.90;;;;;;5026173;28;20049;-76
2022/04/29 00:14:59;;;;;;;10.35;8.00;;;5.90;99.90;;;;;;5006697;28;20041;-76
2022/04/29 00:17:25;;;;;;;13.32;8.55;;;5.90;99.90;;;;;;5000478;28;20052;-76
2022/04/29 00:19:51;;;;;;;12.88;8.40;;;5.90;99.90;;;;;;5028170;28;20398;-76
2022/04/29 00:22:16;;;;;;;11.75;8.02;;;5.90;99.90;;;;;;5030684;28;20072;-76
2022/04/29 00:24:42;;;;;;;10.20;8.05;;;5.80;99.90;;;;;;5015324;28;20395;-76
2022/04/29 00:27:08;;;;;;;10.38;7.93;;;5.80;99.90;;;;;;5024819;28;20046;-76
2022/04/29 00:29:33;;;;;;;13.05;8.70;;;5.80;99.90;;;;;;5009259;28;20046;-76
2022/04/29 00:31:59;;;;;;;12.50;8.13;;;5.80;99.90;;;;;;5027891;28;20052;-76
2022/04/29 00:34:24;;;;;;;10.85;8.38;;;5.80;99.90;;;;;;5025713;28;20394;-76
2022/04/29 00:36:50;;;;;;;11.70;8.63;;;5.70;99.90;;;;;;5026741;28;20079;-76
2022/04/29 00:39:15;;;;;;;13.40;8.23;;;5.80;99.90;;;;;;5026962;28;20065;-76
2022/04/29 00:41:44;;;;;;;14.25;8.48;;;5.80;99.90;;;;;;5027060;28;20041;-76
2022/04/29 00:44:11;;;;;;;15.25;9.40;;;5.70;99.90;;;;;;5027349;28;20053;-76
2022/04/29 00:46:43;;;;;;;12.70;8.75;;;5.70;99.90;;;;;;5011472;28;20037;-76
2022/04/29 00:49:11;;;;;;;13.90;9.07;;;5.70;99.90;;;;;;5025550;28;20037;-76
2022/04/29 00:51:37;;;;;;;11.27;7.82;;;5.70;99.90;;;;;;5034007;28;20041;-76
2022/04/29 00:54:06;;;;;;;12.82;8.20;;;5.60;99.90;;;;;;5034787;28;20686;-76
2022/04/29 00:56:36;;;;;;;12.05;8.60;;;5.60;99.90;;;;;;5029489;28;20056;-76
2022/04/29 00:59:15;;;;;;;12.18;8.43;;;5.60;99.90;;;;;;5029852;28;20041;-76
2022/04/29 01:01:43;;;;;;;12.43;8.25;;;5.60;99.90;;;;;;5027639;28;20041;-76
2022/04/29 01:04:14;;;;;;;12.15;8.63;;;5.60;99.90;;;;;;5032852;28;20053;-76
2022/04/29 01:06:39;;;;;;;11.25;7.97;;;5.50;99.90;;;;;;5035275;28;20132;-76
2022/04/29 01:09:05;;;;;;;10.65;8.15;;;5.50;99.90;;;;;;5030976;28;20048;-76
2022/04/29 01:11:32;;;;;;;10.93;8.60;;;5.50;99.90;;;;;;5034667;28;20038;-76
2022/04/29 01:13:57;;;;;;;12.82;8.68;;;5.50;99.90;;;;;;5034042;28;20038;-76
2022/04/29 01:16:23;;;;;;;10.98;8.82;;;5.40;99.90;;;;;;5032145;28;20123;-76
2022/04/29 01:18:53;;;;;;;12.45;8.63;;;5.40;99.90;;;;;;5034526;28;20045;-77
2022/04/29 01:21:19;;;;;;;12.23;8.32;;;5.30;99.90;;;;;;5036679;28;20037;-76
2022/04/29 01:23:45;;;;;;;9.35;8.27;;;5.20;99.90;;;;;;5035397;28;20402;-76
2022/04/29 01:26:15;;;;;;;10.13;8.07;;;5.30;99.90;;;;;;5031706;28;20041;-76
2022/04/29 01:28:45;;;;;;;11.85;7.28;;;5.20;99.90;;;;;;5031385;28;20068;-76
2022/04/29 01:31:15;;;;;;;12.30;8.23;;;5.20;99.90;;;;;;5018670;28;20080;-77
2022/04/29 01:33:47;;;;;;;13.60;8.50;;;5.10;99.90;;;;;;5032687;28;20468;-76
2022/04/29 01:36:13;;;;;;;11.93;8.88;;;5.10;99.90;;;;;;5016799;28;20045;-76
2022/04/29 01:38:39;;;;;;;11.32;8.23;;;5.10;99.90;;;;;;5032384;28;20132;-76
2022/04/29 01:41:05;;;;;;;12.32;8.30;;;5.10;99.90;;;;;;5031985;28;20152;-76
2022/04/29 01:43:35;;;;;;;10.95;8.93;;;5.10;99.90;;;;;;5019682;28;20033;-76
2022/04/29 01:46:02;;;;;;;12.63;8.32;;;5.10;99.90;;;;;;5031177;28;20074;-76
2022/04/29 01:48:28;;;;;;;11.02;8.25;;;5.10;99.90;;;;;;5016582;28;20040;-76
2022/04/29 01:50:54;;;;;;;9.60;8.23;;;5.00;99.90;;;;;;5061267;28;20040;-77
2022/04/29 01:53:20;;;;;;;10.68;8.60;;;5.00;99.90;;;;;;5037536;28;20562;-76
2022/04/29 01:55:46;;;;;;;14.88;8.05;;;5.00;99.90;;;;;;5031351;28;20120;-76
2022/04/29 01:58:12;;;;;;;11.55;8.73;;;5.00;99.90;;;;;;5031107;28;20362;-76
2022/04/29 02:00:38;;;;;;;11.85;8.63;;;5.00;99.90;;;;;;5013763;28;20044;-76
2022/04/29 02:03:03;;;;;;;10.43;8.50;;;4.90;99.90;;;;;;5032979;28;20059;-76
2022/04/29 02:05:29;;;;;;;13.23;8.45;;;4.90;99.90;;;;;;5008295;28;20068;-76
2022/04/29 02:07:57;;;;;;;10.85;8.35;;;4.90;99.90;;;;;;5037034;28;20123;-76
2022/04/29 02:10:23;;;;;;;12.90;9.23;;;4.80;99.90;;;;;;5032568;28;20040;-77
2022/04/29 02:12:48;;;;;;;12.77;8.45;;;4.70;99.90;;;;;;5031806;28;20041;-76
2022/04/29 02:15:14;;;;;;;10.88;8.27;;;4.70;99.90;;;;;;5017201;28;20045;-76
2022/04/29 02:17:40;;;;;;;10.30;8.32;;;4.70;99.90;;;;;;5023320;28;20045;-76
2022/04/29 02:20:06;;;;;;;14.50;8.65;;;4.70;99.90;;;;;;5018659;28;20053;-76
2022/04/29 02:22:31;;;;;;;12.15;8.75;;;4.60;99.90;;;;;;4998896;28;20033;-77
2022/04/29 02:25:00;;;;;;;11.32;9.00;;;4.50;99.90;;;;;;5027370;28;20376;-77
2022/04/29 02:27:25;;;;;;;12.63;9.00;;;4.50;99.90;;;;;;5030483;28;20033;-76
2022/04/29 02:29:51;;;;;;;10.75;8.43;;;4.50;99.90;;;;;;5021163;28;20513;-77
2022/04/29 02:32:17;;;;;;;12.35;9.50;;;4.40;99.90;;;;;;5032510;28;20120;-76
2022/04/29 02:34:43;;;;;;;11.98;8.57;;;4.40;99.90;;;;;;5031514;28;20049;-77
2022/04/29 02:37:09;;;;;;;12.00;8.98;;;4.20;99.90;;;;;;5032036;28;20056;-77
2022/04/29 02:39:35;;;;;;;12.80;8.73;;;4.30;99.90;;;;;;5032613;28;20127;-77
2022/04/29 02:42:02;;;;;;;9.20;8.18;;;4.30;99.90;;;;;;5032525;28;20120;-77
2022/04/29 02:44:28;;;;;;;11.10;8.30;;;4.30;99.90;;;;;;5024741;28;20061;-76
2022/04/29 02:47:09;;;;;;;13.27;8.68;;;4.40;99.90;;;;;;5030482;28;20567;-77
2022/04/29 02:49:39;;;;;;;12.32;9.32;;;4.40;99.90;;;;;;5033262;28;20359;-77
2022/04/29 02:52:07;;;;;;;10.88;9.30;;;4.50;99.90;;;;;;5029631;28;20040;-77
2022/04/29 02:54:32;;;;;;;11.13;8.23;;;4.50;99.90;;;;;;5032054;28;20060;-77
2022/04/29 02:56:58;;;;;;;12.30;8.75;;;4.50;99.90;;;;;;5030893;28;20119;-77
2022/04/29 02:59:24;;;;;;;10.30;8.75;;;4.50;99.90;;;;;;5016843;28;20033;-77
2022/04/29 03:01:50;;;;;;;9.55;8.63;;;4.60;99.90;;;;;;5031971;28;20049;-77
2022/04/29 03:04:15;;;;;;;12.70;8.68;;;4.60;99.90;;;;;;5030790;28;20048;-77
2022/04/29 03:06:41;;;;;;;11.07;9.05;;;4.60;99.90;;;;;;5047955;28;20051;-77
2022/04/29 03:09:07;;;;;;;11.70;8.68;;;4.50;99.90;;;;;;5032435;28;20090;-77
2022/04/29 03:11:32;;;;;;;11.07;7.90;;;4.50;99.90;;;;;;5015386;28;20036;-77
2022/04/29 03:13:58;;;;;;;9.90;8.35;;;4.50;99.90;;;;;;5032307;28;20067;-77
2022/04/29 03:16:23;;;;;;;10.73;8.30;;;4.40;99.90;;;;;;5016035;28;20724;-77
2022/04/29 03:18:49;;;;;;;11.38;8.75;;;4.50;99.90;;;;;;5027571;28;20714;-77
2022/04/29 03:21:15;;;;;;;11.55;8.38;;;4.40;99.90;;;;;;5028133;28;20479;-77
2022/04/29 03:23:40;;;;;;;11.75;8.15;;;4.40;99.90;;;;;;5013381;28;20509;-77
2022/04/29 03:26:06;;;;;;;13.30;9.02;;;4.40;99.90;;;;;;5029484;28;20045;-77
2022/04/29 03:28:32;;;;;;;12.18;8.45;;;4.20;99.90;;;;;;5029790;28;20089;-77
2022/04/29 03:30:59;;;;;;;11.45;9.15;;;4.20;99.90;;;;;;5031597;28;20059;-77
2022/04/29 03:33:25;;;;;;;13.05;8.70;;;4.10;99.90;;;;;;5047851;28;20116;-77
2022/04/29 03:35:50;;;;;;;9.98;8.20;;;4.20;99.90;;;;;;5028597;28;20128;-77
2022/04/29 03:38:16;;;;;;;12.02;8.02;;;4.10;99.90;;;;;;5015012;28;20387;-77
2022/04/29 03:40:42;;;;;;;10.68;8.80;;;4.10;99.90;;;;;;5027742;28;20837;-77
2022/04/29 03:43:08;;;;;;;10.13;8.15;;;4.10;99.90;;;;;;5047454;28;20069;-77
2022/04/29 03:45:33;;;;;;;10.20;7.57;;;4.10;99.90;;;;;;5029373;28;20060;-77
2022/04/29 03:47:59;;;;;;;9.77;8.10;;;4.10;99.90;;;;;;5027845;28;20521;-77
2022/04/29 03:50:27;;;;;;;12.00;8.88;;;4.10;99.90;;;;;;5031859;28;20095;-77
2022/04/29 03:52:55;;;;;;;11.55;8.73;;;4.00;99.90;;;;;;5030418;28;20037;-77
2022/04/29 03:55:22;;;;;;;9.60;8.60;;;4.00;99.90;;;;;;5015729;28;20041;-77
2022/04/29 03:57:47;;;;;;;10.25;8.43;;;4.00;99.90;;;;;;5042908;28;20087;-77
2022/04/29 04:00:14;;;;;;;11.52;8.45;;;4.00;99.90;;;;;;5030971;28;20041;-77
2022/04/29 04:02:40;;;;;;;9.85;7.88;;;3.90;99.90;;;;;;5032633;28;20045;-77
2022/04/29 04:05:07;;;;;;;10.63;8.00;;;3.90;99.90;;;;;;5028626;28;20103;-77
2022/04/29 04:07:33;;;;;;;12.13;8.70;;;3.90;99.90;;;;;;5026742;28;20081;-77
2022/04/29 04:09:59;;;;;;;10.05;8.40;;;4.00;99.90;;;;;;5021923;28;20041;-77
2022/04/29 04:12:25;;;;;;;11.88;9.07;;;3.90;99.90;;;;;;5012946;28;20110;-77
2022/04/29 04:14:51;;;;;;;14.02;9.98;;;3.90;99.90;;;;;;5031472;28;20463;-77
2022/04/29 04:17:17;;;;;;;14.52;9.15;;;3.80;99.90;;;;;;5010451;28;20032;-76
2022/04/29 04:19:43;;;;;;;14.40;9.95;;;3.90;99.90;;;;;;5024582;28;20037;-77
2022/04/29 04:22:09;;;;;;;15.18;9.93;;;3.90;99.90;;;;;;5022589;28;20434;-77
2022/04/29 04:24:34;;;;;;;14.52;9.55;;;4.00;99.90;;;;;;5025671;28;20032;-77
2022/04/29 04:27:00;;;;;;;15.40;9.80;;;4.10;99.90;;;;;;5031322;28;20049;-77
2022/04/29 04:29:25;;;;;;;12.43;9.45;;;4.10;99.90;;;;;;5026811;28;20129;-77
2022/04/29 04:31:52;;;;;;;14.60;9.90;;;4.20;99.90;;;;;;5019239;28;20672;-77
2022/04/29 04:37:02;;;;;;;14.85;8.93;;;4.30;99.90;;;;;;5031590;28;20057;-77
2022/04/29 04:39:28;;;;;;;13.15;9.70;;;4.40;99.90;;;;;;5043615;28;20049;-77
2022/04/29 04:41:53;;;;;;;14.75;9.45;;;4.40;99.90;;;;;;5027257;28;20052;-77
2022/04/29 04:44:19;;;;;;;11.43;9.23;;;4.50;99.90;;;;;;5028353;28;20040;-77
2022/04/29 04:46:45;;;;;;;16.08;9.05;;;4.60;99.90;;;;;;5032141;28;20052;-76
2022/04/29 04:49:11;;;;;;;12.52;9.38;;;4.60;99.90;;;;;;5013660;28;20455;-77
2022/04/29 04:51:37;;;;;;;11.48;9.18;;;4.60;99.90;;;;;;5045230;22;20234;-77
2022/04/29 04:54:03;;;;;;;12.38;9.30;;;4.60;99.90;;;;;;5041557;28;20056;-77
2022/04/29 04:56:29;;;;;;;15.07;8.88;;;4.70;99.90;;;;;;5028743;28;20059;-77
2022/04/29 04:58:55;;;;;;;11.25;8.77;;;4.70;99.90;;;;;;5028396;28;20041;-77
2022/04/29 05:01:20;;;;;;;12.80;8.90;;;4.80;99.90;;;;;;5027636;28;20044;-77
2022/04/29 05:03:46;;;;;;;9.52;8.63;;;4.80;99.90;;;;;;5030244;28;20463;-77
2022/04/29 05:06:11;;;;;;;12.77;8.55;;;5.00;99.90;;;;;;5063565;28;20034;-76
2022/04/29 05:08:37;;;;;;;15.05;10.00;;;5.10;99.90;;;;;;5038886;28;20045;-77
2022/04/29 05:11:03;;;;;;;13.27;9.63;;;5.30;99.90;;;;;;5057257;28;20052;-77
2022/04/29 05:13:28;;;;;;;12.88;9.35;;;5.30;99.90;;;;;;5040252;28;20041;-77
2022/04/29 05:15:54;;;;;;;17.42;9.48;;;5.50;99.90;;;;;;5041224;28;20048;-78
2022/04/29 05:18:19;;;;;;;14.00;9.20;;;5.60;99.90;;;;;;5033310;28;20166;-77
2022/04/29 05:20:45;;;;;;;12.27;9.45;;;5.80;99.90;;;;;;5060788;28;20102;-77
2022/04/29 05:23:11;;;;;;;13.02;9.27;;;6.10;99.90;;;;;;5028665;28;20049;-77
2022/04/29 05:25:36;;;;;;;12.60;9.07;;;6.30;99.90;;;;;;5042801;28;20036;-77
2022/04/29 05:28:02;;;;;;;13.57;8.70;;;6.50;99.90;;;;;;5047227;28;20549;-77
2022/04/29 05:30:30;;;;;;;10.07;8.38;;;6.70;99.90;;;;;;5035106;28;20029;-77
2022/04/29 05:32:55;;;;;;;12.50;8.10;;;6.80;99.90;;;;;;5012369;28;20495;-77
2022/04/29 05:35:22;;;;;;;13.73;8.27;;;6.90;99.90;;;;;;5032402;28;20072;-77
2022/04/29 05:37:48;;;;;;;13.30;9.05;;;7.10;99.90;;;;;;5032118;28;20041;-77
2022/04/29 05:42:58;;;;;;;11.35;8.02;;;7.20;99.90;;;;;;5038935;28;20050;-77
2022/04/29 05:45:24;;;;;;;12.98;8.60;;;7.20;99.90;;;;;;5064224;28;20502;-77
2022/04/29 05:47:49;;;;;;;8.35;7.28;;;7.40;99.90;;;;;;5024374;28;20033;-77
2022/04/29 05:50:15;;;;;;;10.63;7.63;;;7.40;99.90;;;;;;5063968;28;20100;-77
2022/04/29 05:52:40;;;;;;;11.13;7.40;;;7.50;99.90;;;;;;5030413;28;20046;-78
2022/04/29 05:55:07;;;;;;;8.82;6.82;;;7.50;99.90;;;;;;5030141;28;20064;-78
2022/04/29 05:57:32;;;;;;;9.98;6.95;;;7.60;99.90;;;;;;5043029;28;20551;-78
2022/04/29 05:59:59;;;;;;;10.38;6.70;;;7.70;99.90;;;;;;5032783;28;20049;-78
2022/04/29 06:02:25;;;;;;;8.68;6.57;;;7.80;99.90;;;;;;5029596;28;20037;-78
2022/04/29 06:04:51;;;;;;;11.23;6.95;;;8.00;99.90;;;;;;5034323;28;20111;-77
2022/04/29 06:07:16;;;;;;;7.75;5.93;;;8.00;99.90;;;;;;5053021;28;20033;-77
2022/04/29 06:09:42;;;;;;;12.02;5.30;;;8.00;99.90;;;;;;5043899;28;20117;-77
2022/04/29 06:12:08;;;;;;;9.80;5.82;;;8.00;99.90;;;;;;5063206;28;20037;-77
2022/04/29 06:14:38;;;;;;;6.53;5.50;;;8.10;99.90;;;;;;5027294;28;20046;-78
2022/04/29 06:17:05;;;;;;;7.78;5.85;;;8.20;99.90;;;;;;5045286;28;20049;-76
2022/04/29 06:19:30;;;;;;;8.77;5.88;;;8.30;99.90;;;;;;5047798;28;20045;-77
2022/04/29 06:21:56;;;;;;;7.75;5.68;;;8.40;99.90;;;;;;5040999;28;20533;-76
2022/04/29 06:24:21;;;;;;;9.45;5.70;;;8.50;99.90;;;;;;5048401;28;20415;-77
2022/04/29 06:26:47;;;;;;;9.18;5.68;;;8.50;99.90;;;;;;5033280;28;21062;-77
2022/04/29 06:29:13;;;;;;;6.72;5.05;;;8.60;99.90;;;;;;5040720;28;20060;-77
2022/04/29 06:31:38;;;;;;;8.52;5.93;;;8.60;99.90;;;;;;5035891;28;20405;-77
2022/04/29 06:34:04;;;;;;;5.88;5.13;;;8.60;99.90;;;;;;5022253;28;20459;-77
2022/04/29 06:36:29;;;;;;;6.32;5.20;;;8.70;99.90;;;;;;5015072;28;20037;-77
2022/04/29 06:38:55;;;;;;;7.72;5.30;;;8.90;99.90;;;;;;5065014;28;20099;-77
2022/04/29 06:41:20;;;;;;;7.63;5.47;;;9.00;99.90;;;;;;5030421;28;20049;-78
2022/04/29 06:43:46;;;;;;;8.13;4.95;;;9.10;99.90;;;;;;5043999;28;20099;-78
2022/04/29 06:46:13;;;;;;;7.13;5.60;;;9.10;99.90;;;;;;5037070;28;20032;-78
2022/04/29 06:48:39;;;;;;;7.80;5.88;;;8.90;99.90;;;;;;5039121;28;20124;-78
2022/04/29 06:51:04;;;;;;;9.95;5.60;;;8.90;99.90;;;;;;5058863;28;20044;-78
2022/04/29 06:53:30;;;;;;;9.63;5.25;;;9.00;99.90;;;;;;5027909;28;20072;-78
2022/04/29 06:55:55;;;;;;;9.45;4.97;;;9.10;99.90;;;;;;5026520;28;20053;-78
2022/04/29 06:58:21;;;;;;;7.40;4.60;;;9.10;99.90;;;;;;5049238;28;20053;-78
2022/04/29 07:00:46;;;;;;;5.60;4.07;;;9.00;99.90;;;;;;5036185;28;20045;-77
2022/04/29 07:03:12;;;;;;;4.97;2.92;;;9.10;99.90;;;;;;5047248;28;20045;-78
2022/04/29 07:05:39;;;;;;;5.78;3.45;;;9.00;99.90;;;;;;5061190;28;20034;-79
2022/04/29 07:08:05;;;;;;;4.03;3.38;;;8.90;99.90;;;;;;5024876;28;20073;-79
2022/04/29 07:10:31;;;;;;;5.43;3.58;;;9.00;99.90;;;;;;5042780;28;20040;-79
2022/04/29 07:12:57;;;;;;;5.82;3.50;;;8.90;99.90;;;;;;5032613;28;20041;-79
2022/04/29 07:15:23;;;;;;;4.20;3.00;;;9.00;99.90;;;;;;5045704;28;20041;-79
2022/04/29 07:17:48;;;;;;;6.43;3.38;;;9.20;99.90;;;;;;5046558;28;20434;-80
2022/04/29 07:20:15;;;;;;;5.03;3.38;;;9.20;99.90;;;;;;5030459;28;20041;-79
2022/04/29 07:22:42;;;;;;;7.70;3.42;;;9.30;99.90;;;;;;5044518;28;20049;-79
2022/04/29 07:25:09;;;;;;;7.53;4.45;;;9.50;99.90;;;;;;5063440;28;20175;-79
2022/04/29 07:27:35;;;;;;;6.25;4.03;;;9.70;99.90;;;;;;5048730;28;20055;-80
2022/04/29 07:30:03;;;;;;;5.68;2.95;;;10.10;99.90;;;;;;5049987;28;20047;-78
2022/04/29 07:32:29;;;;;;;6.55;3.50;;;10.10;99.90;;;;;;5049497;28;20044;-79
2022/04/29 07:43:09;;;;;;;10.45;3.72;;;10.50;99.90;;;;;;5040073;28;20119;-80
2022/04/29 07:45:37;;;;;;;5.55;3.60;;;10.40;99.90;;;;;;5061438;28;20125;-79
2022/04/29 07:48:06;;;;;;;4.30;3.28;;;10.40;99.90;;;;;;5045991;28;20038;-79
2022/04/29 07:50:33;;;;;;;3.75;3.00;;;10.80;99.90;;;;;;5054200;28;20441;-79
2022/04/29 07:53:00;;;;;;;5.60;3.38;;;11.00;99.90;;;;;;5046183;28;20053;-80
2022/04/29 07:55:26;;;;;;;4.60;3.13;;;11.00;99.90;;;;;;5045503;28;20115;-79
2022/04/29 07:57:52;;;;;;;6.75;3.20;;;11.20;99.90;;;;;;5030269;28;20476;-79
2022/04/29 08:00:18;;;;;;;4.53;3.35;;;11.10;99.90;;;;;;5034783;28;20083;-79
2022/04/29 08:02:44;;;;;;;6.40;2.78;;;11.40;99.90;;;;;;5035299;28;20064;-80
2022/04/29 08:05:10;;;;;;;5.38;2.55;;;11.20;99.90;;;;;;5034467;28;20483;-79
2022/04/29 08:07:36;;;;;;;4.05;1.90;;;11.50;99.90;;;;;;5042162;28;20419;-79
2022/04/29 08:10:02;;;;;;;4.50;2.50;;;11.50;99.90;;;;;;5035590;28;20709;-80
2022/04/29 08:12:28;;;;;;;3.97;2.47;;;11.80;99.90;;;;;;5062940;28;20487;-80
2022/04/29 08:14:54;;;;;;;4.03;2.83;;;11.70;99.90;;;;;;5044979;28;20048;-79
2022/04/29 08:17:20;;;;;;;5.60;2.47;;;11.80;99.90;;;;;;5046466;28;20044;-79
2022/04/29 08:19:48;;;;;;;6.97;3.10;;;12.10;99.90;;;;;;5025811;28;20480;-82
2022/04/29 08:22:14;;;;;;;5.38;2.35;;;12.10;99.90;;;;;;5046871;28;20505;-82
2022/04/29 08:24:40;;;;;;;5.63;2.40;;;12.00;99.80;;;;;;5029940;28;20037;-81
2022/04/29 08:27:06;;;;;;;4.03;2.60;;;11.80;99.70;;;;;;5028973;28;20598;-81
2022/04/29 08:29:32;;;;;;;4.35;2.30;;;11.60;99.50;;;;;;5050747;28;20033;-82
2022/04/29 08:31:57;;;;;;;3.70;2.15;;;11.90;99.90;;;;;;5035972;28;20041;-81
2022/04/29 08:34:23;;;;;;;7.13;2.38;;;11.60;98.90;;;;;;5033003;28;20108;-82
2022/04/29 08:36:49;;;;;;;5.93;3.03;;;11.40;99.00;;;;;;5031932;28;20402;-81
2022/04/29 08:39:15;;;;;;;5.32;2.60;;;11.20;99.10;;;;;;5025702;28;20744;-82
2022/04/29 08:41:42;;;;;;;3.97;2.13;;;11.20;99.70;;;;;;5052733;28;20049;-82
2022/04/29 08:44:10;;;;;;;4.55;2.50;;;11.10;99.70;;;;;;5037767;28;20120;-82
2022/04/29 08:46:39;;;;;;;4.05;2.10;;;11.20;99.90;;;;;;5026713;28;20041;-80
2022/04/29 08:49:06;;;;;;;5.07;2.30;;;11.00;99.90;;;;;;5049206;28;20121;-80
2022/04/29 08:51:34;;;;;;;4.05;2.13;;;11.10;99.90;;;;;;5066035;28;20497;-80
2022/04/29 08:54:01;;;;;;;4.32;2.13;;;11.30;99.90;;;;;;5048794;28;20478;-79
2022/04/29 08:59:12;;;;;;;6.30;2.38;;;11.20;99.90;;;;;;5037139;28;20045;-79
2022/04/29 09:01:40;;;;;;;2.78;2.28;;;11.10;99.90;;;;;;5045630;28;20045;-78
2022/04/29 09:04:06;;;;;;;6.28;2.83;;;11.10;99.90;;;;;;5035299;28;20045;-79
2022/04/29 09:06:32;;;;;;;6.68;2.40;;;11.30;99.90;;;;;;5038023;28;20514;-78
2022/04/29 09:09:09;;;;;;;7.07;2.53;;;11.30;99.90;;;;;;5059702;28;20202;-80
2022/04/29 09:11:35;;;;;;;4.70;2.30;;;11.50;99.90;;;;;;5039774;28;20041;-79
2022/04/29 09:14:19;;;;;;;5.40;2.42;;;11.70;99.80;;;;;;5052233;28;20041;-79
2022/04/29 09:16:45;;;;;;;4.38;1.83;;;11.60;99.10;;;;;;5025076;28;20052;-79
2022/04/29 09:19:29;;;;;;;5.35;1.90;;;11.80;99.70;;;;;;5043859;28;20041;-79
2022/04/29 09:22:07;;;;;;;4.35;2.20;;;11.70;98.70;;;;;;5020999;28;20041;-78
2022/04/29 09:24:33;;;;;;;5.30;2.30;;;11.30;98.80;;;;;;5051858;28;20106;-79
2022/04/29 09:27:00;;;;;;;5.47;2.20;;;11.40;99.80;;;;;;5052133;28;20052;-79
2022/04/29 09:29:28;;;;;;;3.47;2.00;;;11.40;99.90;;;;;;5051968;28;20115;-79
2022/04/29 09:31:59;;;;;;;4.05;1.77;;;11.80;99.90;;;;;;5045026;28;20405;-77
2022/04/29 09:34:54;;;;;;;5.68;2.17;;;11.60;99.90;;;;;;5016438;28;20116;-78
2022/04/29 09:37:22;;;;;;;6.65;2.55;;;11.60;99.90;;;;;;5033019;28;20041;-78
2022/04/29 09:39:52;;;;;;;4.90;1.90;;;11.70;99.90;;;;;;5040188;28;20041;-78
2022/04/29 09:42:17;;;;;;;3.08;1.95;;;11.80;99.90;;;;;;5032407;28;20036;-77
2022/04/29 09:44:43;;;;;;;4.95;1.92;;;11.70;99.90;;;;;;5040136;28;20033;-78
2022/04/29 09:47:14;;;;;;;4.28;2.03;;;11.80;99.90;;;;;;5031958;28;20491;-78
2022/04/29 09:49:41;;;;;;;4.63;2.08;;;11.80;99.90;;;;;;5061560;28;20045;-77
2022/04/29 09:52:07;;;;;;;5.10;2.60;;;11.50;99.90;;;;;;5029496;28;20053;-77
2022/04/29 09:54:37;;;;;;;6.50;2.78;;;11.60;99.90;;;;;;5051228;28;20073;-78
2022/04/29 09:57:17;;;;;;;4.28;2.45;;;11.80;99.90;;;;;;5028443;28;20046;-78
2022/04/29 09:59:50;;;;;;;9.68;2.50;;;11.40;99.90;;;;;;5049326;28;20487;-78
2022/04/29 10:02:23;;;;;;;5.53;2.65;;;11.40;99.90;;;;;;5036887;28;20087;-78
2022/04/29 10:04:50;;;;;;;4.03;2.40;;;11.70;99.90;;;;;;5048265;28;20053;-78
2022/04/29 10:07:24;;;;;;;5.30;2.58;;;11.50;99.90;;;;;;5028250;28;20084;-77
2022/04/29 10:09:51;;;;;;;4.57;2.70;;;11.50;99.90;;;;;;5037286;28;20041;-78
2022/04/29 10:12:22;;;;;;;4.25;2.60;;;11.70;99.90;;;;;;5019018;28;20037;-78
2022/04/29 10:14:56;;;;;;;4.40;2.80;;;11.80;99.90;;;;;;5055511;28;20033;-78
2022/04/29 10:23:05;;;;;;;3.83;2.85;;;11.90;99.90;;;;;;5063930;28;20055;-79
2022/04/29 10:25:32;;;;;;;4.05;2.60;;;11.90;99.60;;;;;;5047185;28;20348;-78
2022/04/29 10:28:00;;;;;;;3.58;2.63;;;12.00;99.60;;;;;;5030751;28;20060;-78
2022/04/29 10:30:37;;;;;;;4.00;2.90;;;11.60;99.90;;;;;;5032404;28;20099;-78
2022/04/29 10:33:06;;;;;;;4.00;3.25;;;11.70;99.90;;;;;;5029570;28;20716;-78
2022/04/29 10:35:47;;;;;;;5.05;3.28;;;11.90;99.90;;;;;;5050371;28;20045;-77
2022/04/29 10:38:17;;;;;;;7.07;3.53;;;11.60;99.80;;;;;;5040879;28;20037;-78
2022/04/29 10:40:44;;;;;;;6.45;3.17;;;11.80;99.90;;;;;;5052354;28;20124;-78
2022/04/29 10:43:13;;;;;;;5.63;3.20;;;11.50;99.60;;;;;;5031592;28;20081;-78
2022/04/29 10:46:05;;;;;;;4.47;3.15;;;11.30;99.80;;;;;;5050720;28;20049;-77
2022/04/29 10:48:37;;;;;;;6.33;3.67;;;11.20;99.80;;;;;;5025144;28;20150;-78
2022/04/29 10:51:12;;;;;;;8.00;3.92;;;11.00;99.90;;;;;;5059564;28;20044;-79
2022/04/29 10:53:40;;;;;;;7.22;4.68;;;11.30;99.90;;;;;;5041605;28;20149;-79
2022/04/29 10:56:28;;;;;;;7.80;4.00;;;11.50;99.90;;;;;;5045993;28;20474;-79
2022/04/29 10:58:58;;;;;;;4.00;3.58;;;11.50;99.90;;;;;;5060727;28;20160;-79
2022/04/29 11:01:28;;;;;;;4.55;3.40;;;11.50;99.90;;;;;;5045722;28;20054;-79
2022/04/29 11:03:54;;;;;;;4.38;3.97;;;11.20;99.90;;;;;;5034137;28;20057;-79
2022/04/29 11:06:20;;;;;;;5.63;3.80;;;11.10;99.90;;;;;;5058927;28;20057;-79
2022/04/29 11:08:46;;;;;;;5.03;3.85;;;11.00;99.90;;;;;;5036650;28;20103;-79
2022/04/29 11:11:12;;;;;;;4.68;3.83;;;11.00;99.90;;;;;;5040025;28;20487;-78
2022/04/29 11:13:44;;;;;;;6.18;4.68;;;11.20;99.90;;;;;;5022976;28;20391;-79
2022/04/29 11:16:15;;;;;;;5.22;4.72;;;11.40;99.90;;;;;;5036213;28;20069;-79
2022/04/29 11:18:43;;;;;;;5.22;4.80;;;11.50;99.90;;;;;;5050221;28;20040;-78
2022/04/29 11:26:47;;;;;;;5.78;4.05;;;11.20;99.90;;;;;;5045954;28;20418;-78
2022/04/29 11:29:14;;;;;;;8.27;4.32;;;11.60;99.90;;;;;;5043572;28;20045;-79
2022/04/29 11:31:40;;;;;;;4.93;4.43;;;11.80;99.90;;;;;;5046370;28;20034;-78
2022/04/29 11:34:14;;;;;;;5.20;4.15;;;11.90;99.90;;;;;;5036462;28;20071;-78
2022/04/29 11:36:41;;;;;;;5.47;4.28;;;12.10;99.90;;;;;;5025227;28;20037;-78
2022/04/29 11:39:17;;;;;;;4.88;3.90;;;12.20;99.90;;;;;;5038852;28;20126;-78
2022/04/29 11:41:59;;;;;;;7.07;3.30;;;12.20;99.30;;;;;;5059307;28;20078;-79
2022/04/29 11:44:45;;;;;;;7.47;3.97;;;12.20;99.30;;;;;;5041693;28;20052;-78
2022/04/29 11:47:12;;;;;;;7.25;3.40;;;12.20;99.00;;;;;;5047031;28;20037;-78
2022/04/29 11:49:38;;;;;;;4.57;3.03;;;12.40;99.00;;;;;;5047785;28;20087;-79
2022/04/29 11:52:23;;;;;;;4.35;2.90;;;11.90;98.60;;;;;;5034613;28;20760;-78
2022/04/29 11:55:00;;;;;;;4.40;2.90;;;12.10;98.90;;;;;;5049403;28;20132;-79
2022/04/29 11:57:27;;;;;;;6.05;3.90;;;11.70;98.80;;;;;;5041291;28;20410;-79
2022/04/29 11:59:53;;;;;;;6.55;3.15;;;11.20;99.80;;;;;;5045194;28;20037;-79
2022/04/29 12:02:21;;;;;;;6.90;3.30;;;11.20;99.80;;;;;;5026418;28;20064;-78
2022/04/29 12:05:00;;;;;;;10.48;3.72;;;11.30;99.70;;;;;;5028492;28;20671;-79
2022/04/29 12:07:38;;;;;;;5.20;3.40;;;11.70;99.90;;;;;;5027053;28;20162;-78
2022/04/29 12:10:26;;;;;;;4.78;2.97;;;12.10;99.90;;;;;;5045947;28;20103;-78
2022/04/29 12:13:04;;;;;;;6.88;3.25;;;12.30;97.70;;;;;;5036278;28;20037;-78
2022/04/29 12:15:37;;;;;;;5.65;3.17;;;12.50;97.40;;;;;;5041389;28;20556;-79
2022/04/29 12:18:06;;;;;;;5.80;3.47;;;11.90;97.50;;;;;;5061309;28;20518;-79
2022/04/29 12:20:32;;;;;;;5.32;3.30;;;12.20;97.70;;;;;;5062838;28;20727;-79
2022/04/29 12:23:20;;;;;;;3.30;2.97;;;11.90;97.20;;;;;;5038503;28;20106;-79
2022/04/29 12:25:47;;;;;;;3.50;3.13;;;12.10;97.20;;;;;;5030646;28;20041;-79
2022/04/29 12:28:21;;;;;;;5.40;3.15;;;12.40;97.30;;;;;;5061738;28;20045;-79
2022/04/29 12:36:57;;;;;;;4.68;3.10;;;12.40;96.40;;;;;;5027753;28;20501;-79
2022/04/29 12:39:35;;;;;;;7.78;2.97;;;12.60;96.20;;;;;;5045496;28;20152;-79
2022/04/29 12:42:03;;;;;;;3.58;3.13;;;11.80;96.30;;;;;;5033074;28;20044;-79
2022/04/29 12:47:40;;;;;;;5.50;3.10;;;11.80;96.90;;;;;;5052160;28;20061;-79
2022/04/29 12:50:25;;;;;;;5.75;2.97;;;12.20;97.00;;;;;;5061793;28;20044;-79
2022/04/29 12:53:12;;;;;;;6.22;3.42;;;12.50;97.10;;;;;;5051411;28;20076;-79
2022/04/29 12:55:44;;;;;;;5.47;3.05;;;12.40;96.10;;;;;;5028594;28;20049;-79
2022/04/29 12:58:20;;;;;;;6.93;3.20;;;12.10;96.40;;;;;;5028723;28;20507;-80
2022/04/29 13:00:51;;;;;;;3.25;2.67;;;12.10;97.20;;;;;;5029048;28;20076;-79
2022/04/29 13:03:21;;;;;;;5.63;3.15;;;11.90;97.40;;;;;;5033757;28;20394;-80
2022/04/29 13:05:47;;;;;;;4.30;2.67;;;12.30;97.50;;;;;;5030112;28;20041;-80
2022/04/29 13:08:14;;;;;;;4.18;2.70;;;12.60;96.60;;;;;;5030285;28;20041;-79
2022/04/29 13:10:46;;;;;;;4.47;2.85;;;12.80;95.70;;;;;;5043199;28;20482;-80
2022/04/29 13:13:13;;;;;;;6.28;2.65;;;12.90;95.90;;;;;;5029495;28;20068;-79
2022/04/29 13:15:41;;;;;;;4.18;2.65;;;13.10;95.20;;;;;;5024458;28;20041;-79
2022/04/29 13:18:08;;;;;;;3.40;2.60;;;13.00;94.90;;;;;;5043506;28;21322;-79
2022/04/29 13:20:33;;;;;;;5.68;2.90;;;12.70;94.80;;;;;;5028892;28;20045;-79
2022/04/29 13:22:59;;;;;;;4.35;2.55;;;12.90;95.90;;;;;;5029847;28;20059;-79
2022/04/29 13:25:25;;;;;;;3.55;2.53;;;13.10;95.10;;;;;;5027814;28;20065;-79
2022/04/29 13:27:50;;;;;;;4.15;2.50;;;13.40;95.30;;;;;;5057649;28;20045;-79